Terminal Aerodrome Forecast
Issued by NWS Tuscon, AZ

Home | Current Version | Previous Version | Text Only | Print | Product List | Glossary On
Versions: 1 2 3 4 5 6 7 8 9 10 11 12 13 14
493
FTUS45 KTWC 240520
TAFTUS
TAF
KTUS 240520Z 2406/2506 34007KT P6SM FEW150
     FM240800 14006KT P6SM FEW150
     FM242000 33010G16KT P6SM SCT150 SCT250
     FM250300 34006KT P6SM BKN250=

USA.gov is the U.S. government's official web portal to all federal, state and local government web resources and services.